Time;durP1;ratioP1;P1;durP2;ratioP2;P2;SDS_P1;SDS_P2;PMS_P1;PMS_P2;Temp;Humidity;BMP_temperature;BMP_pressure;BME280_temperature;BME280_humidity;BME280_pressure;Samples;Min_cycle;Max_cycle;Signal;HPM_P1;HPM_P2
2021/10/08 00:01:49;;;;;;;4.53;3.13;;;7.20;99.90;;;;;;4974057;28;20168;-87
2021/10/08 00:04:15;;;;;;;4.90;3.87;;;7.20;99.90;;;;;;4974080;28;20181;-87
2021/10/08 00:06:41;;;;;;;5.27;3.70;;;7.10;99.90;;;;;;4974065;28;20470;-87
2021/10/08 00:09:06;;;;;;;5.70;3.90;;;7.10;99.90;;;;;;4974179;28;20173;-87
2021/10/08 00:11:32;;;;;;;4.63;3.70;;;7.10;99.90;;;;;;4956842;28;20260;-87
2021/10/08 00:13:58;;;;;;;4.23;3.30;;;7.10;99.90;;;;;;4956287;28;20219;-90
2021/10/08 00:16:23;;;;;;;3.33;3.03;;;7.10;99.90;;;;;;4957854;28;20180;-90
2021/10/08 00:18:49;;;;;;;5.87;3.97;;;7.10;99.90;;;;;;4960774;28;20216;-87
2021/10/08 00:21:18;;;;;;;5.30;4.80;;;7.10;99.90;;;;;;4960685;28;20172;-89
2021/10/08 00:23:44;;;;;;;6.50;3.47;;;7.00;99.90;;;;;;4978047;28;20176;-90
2021/10/08 00:26:09;;;;;;;5.80;3.60;;;7.00;99.90;;;;;;4960667;28;20427;-88
2021/10/08 00:28:35;;;;;;;5.63;3.70;;;7.00;99.90;;;;;;4977692;28;20177;-88
2021/10/08 00:31:01;;;;;;;3.30;2.97;;;6.90;99.90;;;;;;4960657;28;20178;-89
2021/10/08 00:33:27;;;;;;;4.67;3.13;;;6.90;99.90;;;;;;4978093;28;20638;-87
2021/10/08 00:35:52;;;;;;;5.40;3.40;;;6.90;99.90;;;;;;4960338;28;20413;-90
2021/10/08 00:38:18;;;;;;;4.77;3.00;;;6.90;99.90;;;;;;4960114;28;20217;-88
2021/10/08 00:40:47;;;;;;;4.27;2.47;;;6.80;99.90;;;;;;4960242;28;20207;-87
2021/10/08 00:43:16;;;;;;;2.93;2.40;;;6.80;99.90;;;;;;4977258;28;20187;-87
2021/10/08 00:45:41;;;;;;;4.67;2.70;;;6.90;99.90;;;;;;4977742;28;20750;-88
2021/10/08 00:48:08;;;;;;;5.70;3.30;;;6.80;99.90;;;;;;4960010;28;20471;-88
2021/10/08 00:50:39;;;;;;;3.70;2.80;;;6.70;99.90;;;;;;4959931;28;20190;-88
2021/10/08 00:53:06;;;;;;;3.70;1.80;;;6.70;99.90;;;;;;4960061;28;20412;-91
2021/10/08 00:55:33;;;;;;;4.63;2.60;;;6.70;99.90;;;;;;4977393;28;20755;-87
2021/10/08 00:58:02;;;;;;;4.50;2.60;;;6.60;99.90;;;;;;4959946;28;21012;-87
2021/10/08 01:00:28;;;;;;;3.70;1.90;;;6.60;99.90;;;;;;4977221;28;20420;-87
2021/10/08 01:02:55;;;;;;;4.87;2.83;;;6.60;99.90;;;;;;4960534;28;20424;-87
2021/10/08 01:05:20;;;;;;;6.77;3.20;;;6.60;99.90;;;;;;4982068;28;20227;-87
2021/10/08 01:07:46;;;;;;;3.50;2.43;;;6.50;99.90;;;;;;4979187;28;20425;-87
2021/10/08 01:10:11;;;;;;;3.40;1.70;;;6.60;99.90;;;;;;4979350;28;20186;-87
2021/10/08 01:12:39;;;;;;;4.07;2.67;;;6.60;99.90;;;;;;4961962;28;20266;-87
2021/10/08 01:15:06;;;;;;;5.80;2.20;;;6.50;99.90;;;;;;4977931;28;20250;-87
2021/10/08 01:17:32;;;;;;;3.00;2.70;;;6.50;99.90;;;;;;4977162;28;20419;-87
2021/10/08 01:20:08;;;;;;;4.40;2.33;;;6.50;99.90;;;;;;4959732;28;20522;-87
2021/10/08 01:22:35;;;;;;;3.90;2.27;;;6.50;99.90;;;;;;4959564;28;20189;-87
2021/10/08 01:25:01;;;;;;;4.27;2.70;;;6.50;99.90;;;;;;4959719;28;20424;-87
2021/10/08 01:27:26;;;;;;;2.60;2.20;;;6.50;99.90;;;;;;4976517;28;20469;-86
2021/10/08 01:29:55;;;;;;;5.07;2.90;;;6.50;99.90;;;;;;4976450;28;20459;-88
2021/10/08 01:32:23;;;;;;;3.20;1.90;;;6.40;99.90;;;;;;4959324;28;20235;-87
2021/10/08 01:34:48;;;;;;;3.80;2.10;;;6.30;99.90;;;;;;4976979;28;20483;-91
2021/10/08 01:37:15;;;;;;;3.27;2.53;;;6.40;99.90;;;;;;4959315;28;20523;-91
2021/10/08 01:39:41;;;;;;;3.60;2.43;;;6.40;99.90;;;;;;4976601;28;20468;-86
2021/10/08 01:42:07;;;;;;;4.70;2.60;;;6.40;99.90;;;;;;4959270;28;20440;-91
2021/10/08 01:44:33;;;;;;;2.67;2.03;;;6.40;99.90;;;;;;4956553;28;20532;-86
2021/10/08 01:46:59;;;;;;;4.47;2.77;;;6.40;99.90;;;;;;4959835;28;20432;-86
2021/10/08 01:49:24;;;;;;;4.47;2.80;;;6.40;99.90;;;;;;4964186;28;20424;-87
2021/10/08 01:51:50;;;;;;;4.40;2.70;;;6.40;99.90;;;;;;4979265;28;20584;-86
2021/10/08 01:54:15;;;;;;;2.60;2.23;;;6.30;99.90;;;;;;4944331;28;20181;-89
2021/10/08 01:56:44;;;;;;;4.53;2.97;;;6.20;99.90;;;;;;4957828;28;20179;-86
2021/10/08 01:59:10;;;;;;;4.90;2.80;;;6.20;99.90;;;;;;4939631;29;20315;-87
2021/10/08 02:01:36;;;;;;;3.80;2.40;;;6.30;99.90;;;;;;4957689;28;20413;-92
2021/10/08 02:04:01;;;;;;;3.07;2.50;;;6.30;99.90;;;;;;4939651;29;20433;-89
2021/10/08 02:06:27;;;;;;;3.30;2.40;;;6.30;99.90;;;;;;4956769;28;20212;-87
2021/10/08 02:08:55;;;;;;;3.17;2.20;;;6.20;99.90;;;;;;4956815;28;20229;-87
2021/10/08 02:11:20;;;;;;;3.40;2.43;;;6.10;99.90;;;;;;4956598;28;20185;-88
2021/10/08 02:13:46;;;;;;;2.90;2.27;;;6.10;99.90;;;;;;4955836;28;20527;-88
2021/10/08 02:16:12;;;;;;;3.67;2.80;;;6.20;99.90;;;;;;4939486;29;20173;-94
2021/10/08 02:18:38;;;;;;;3.63;2.67;;;6.20;99.90;;;;;;4939323;29;20310;-92
2021/10/08 02:21:04;;;;;;;3.50;2.70;;;6.10;99.90;;;;;;4956516;29;20503;-88
2021/10/08 02:23:30;;;;;;;3.60;2.60;;;6.00;99.90;;;;;;4939190;29;20268;-89
2021/10/08 02:25:56;;;;;;;4.30;3.07;;;6.00;99.90;;;;;;4938961;29;20505;-88
2021/10/08 02:28:21;;;;;;;3.90;2.30;;;6.00;99.90;;;;;;4938799;29;20182;-86
2021/10/08 02:30:47;;;;;;;3.90;2.20;;;6.10;99.90;;;;;;4956627;29;20490;-87
2021/10/08 02:33:13;;;;;;;3.73;2.53;;;6.00;99.90;;;;;;4956175;29;20185;-87
2021/10/08 02:35:39;;;;;;;2.27;1.97;;;5.90;99.90;;;;;;4938844;29;20227;-86
2021/10/08 02:38:04;;;;;;;4.47;2.87;;;5.90;99.90;;;;;;4956018;29;20234;-86
2021/10/08 02:40:30;;;;;;;3.77;2.10;;;5.90;99.90;;;;;;4937722;29;20438;-87
2021/10/08 02:42:55;;;;;;;2.80;2.03;;;5.90;99.90;;;;;;4955526;29;20181;-87
2021/10/08 02:45:26;;;;;;;3.50;2.20;;;5.90;99.90;;;;;;4956013;29;20174;-86
2021/10/08 02:47:55;;;;;;;3.10;2.00;;;5.80;99.90;;;;;;4955836;29;20207;-86
2021/10/08 02:50:20;;;;;;;4.70;2.40;;;5.80;99.90;;;;;;4938572;29;20446;-86
2021/10/08 02:52:46;;;;;;;9.90;2.90;;;5.90;99.90;;;;;;4956011;29;20417;-86
2021/10/08 02:55:14;;;;;;;3.97;2.63;;;5.90;99.90;;;;;;4938894;29;20579;-86
2021/10/08 02:57:40;;;;;;;3.73;2.20;;;5.80;99.90;;;;;;4938485;29;20233;-88
2021/10/08 03:00:07;;;;;;;2.43;1.83;;;5.70;99.90;;;;;;4938507;29;20835;-87
2021/10/08 03:02:33;;;;;;;3.43;3.00;;;5.70;99.90;;;;;;4955474;29;20178;-87
2021/10/08 03:04:58;;;;;;;2.47;2.27;;;5.70;99.90;;;;;;4955613;29;20420;-87
2021/10/08 03:07:24;;;;;;;2.70;2.50;;;5.60;99.90;;;;;;4955589;29;20698;-87
2021/10/08 03:09:49;;;;;;;4.73;2.70;;;5.70;99.90;;;;;;4938180;29;20219;-86
2021/10/08 03:12:15;;;;;;;2.60;2.00;;;5.70;99.90;;;;;;4955333;29;20177;-87
2021/10/08 03:14:40;;;;;;;3.07;2.83;;;5.60;99.90;;;;;;4950316;28;20228;-86
2021/10/08 03:17:18;;;;;;;2.80;1.97;;;5.70;99.90;;;;;;4974914;28;20259;-87
2021/10/08 03:19:44;;;;;;;4.00;2.57;;;5.70;99.90;;;;;;4957566;28;20184;-87
2021/10/08 03:22:12;;;;;;;4.30;3.00;;;5.70;99.90;;;;;;4957323;28;20477;-86
2021/10/08 03:24:38;;;;;;;2.90;2.50;;;5.60;99.90;;;;;;4957410;28;20188;-87
2021/10/08 03:27:04;;;;;;;4.03;3.40;;;5.60;99.90;;;;;;4958557;28;20532;-87
2021/10/08 03:29:29;;;;;;;5.33;3.17;;;5.60;99.90;;;;;;4974824;28;20477;-87
2021/10/08 03:31:55;;;;;;;4.03;3.10;;;5.50;99.90;;;;;;4993392;28;20180;-87
2021/10/08 03:34:21;;;;;;;4.27;2.83;;;5.50;99.90;;;;;;4976926;28;20187;-87
2021/10/08 03:36:49;;;;;;;5.03;2.57;;;5.60;99.90;;;;;;4976874;28;20174;-87
2021/10/08 03:39:24;;;;;;;3.43;2.60;;;5.60;99.90;;;;;;4994209;28;20516;-86
2021/10/08 03:41:51;;;;;;;5.50;3.20;;;5.60;99.90;;;;;;4976535;28;20450;-86
2021/10/08 03:44:17;;;;;;;4.13;2.90;;;5.60;99.90;;;;;;4976180;28;20808;-86
2021/10/08 03:46:54;;;;;;;4.47;2.80;;;5.60;99.90;;;;;;4976406;28;20407;-86
2021/10/08 03:49:22;;;;;;;4.40;2.40;;;5.50;99.90;;;;;;4969480;28;20211;-86
2021/10/08 03:51:49;;;;;;;5.80;2.40;;;5.50;99.90;;;;;;4976316;28;20419;-86
2021/10/08 03:54:17;;;;;;;4.70;2.87;;;5.40;99.90;;;;;;4976236;28;20430;-87
2021/10/08 03:56:43;;;;;;;3.50;2.00;;;5.50;99.90;;;;;;4993772;28;20469;-87
2021/10/08 03:59:09;;;;;;;4.73;2.80;;;5.40;99.90;;;;;;4993326;28;20835;-86
2021/10/08 04:01:35;;;;;;;5.00;3.00;;;5.50;99.90;;;;;;4976215;28;20426;-86
2021/10/08 04:04:04;;;;;;;3.57;2.03;;;5.50;99.90;;;;;;4993610;28;21022;-87
2021/10/08 04:06:34;;;;;;;3.30;2.90;;;5.30;99.90;;;;;;4993659;28;20411;-87
2021/10/08 04:09:00;;;;;;;4.43;2.57;;;5.30;99.90;;;;;;4993563;28;20553;-86
2021/10/08 04:11:26;;;;;;;3.03;2.73;;;5.20;99.90;;;;;;4976118;28;20419;-86
2021/10/08 04:13:53;;;;;;;4.63;2.50;;;5.20;99.90;;;;;;4992562;28;20459;-87
2021/10/08 04:16:22;;;;;;;4.73;2.57;;;5.10;99.90;;;;;;4993543;28;20410;-87
2021/10/08 04:18:48;;;;;;;3.50;1.93;;;5.10;99.90;;;;;;4993567;28;20517;-87
2021/10/08 04:21:14;;;;;;;2.70;2.20;;;5.20;99.90;;;;;;4993576;28;20964;-87
2021/10/08 04:23:40;;;;;;;3.40;3.03;;;5.20;99.90;;;;;;4975998;28;20179;-86
2021/10/08 04:26:06;;;;;;;5.80;3.10;;;5.20;99.90;;;;;;4975903;28;20419;-87
2021/10/08 04:28:32;;;;;;;3.20;2.00;;;5.10;99.90;;;;;;4975622;28;20265;-87
2021/10/08 04:30:57;;;;;;;3.67;2.57;;;5.20;99.90;;;;;;4976026;28;20175;-87
2021/10/08 04:33:25;;;;;;;2.53;1.77;;;5.30;99.90;;;;;;4976090;28;20915;-86
2021/10/08 04:35:52;;;;;;;3.27;2.47;;;5.00;99.90;;;;;;4975946;28;20186;-87
2021/10/08 04:38:18;;;;;;;3.00;2.70;;;4.80;99.90;;;;;;4993404;28;20748;-87
2021/10/08 04:40:45;;;;;;;3.13;2.53;;;5.00;99.90;;;;;;4976008;28;20429;-86
2021/10/08 04:43:11;;;;;;;3.53;3.03;;;4.90;99.90;;;;;;4993009;28;20417;-87
2021/10/08 04:45:37;;;;;;;2.10;1.90;;;4.90;99.90;;;;;;4975887;28;20427;-87
2021/10/08 04:48:02;;;;;;;3.80;2.20;;;4.90;99.90;;;;;;4975723;28;20536;-87
2021/10/08 04:50:28;;;;;;;4.03;2.80;;;5.00;99.90;;;;;;4975730;28;20215;-87
2021/10/08 04:52:54;;;;;;;2.00;1.23;;;4.90;99.90;;;;;;4975699;28;20644;-87
2021/10/08 04:55:20;;;;;;;3.10;1.87;;;4.90;99.90;;;;;;4993243;28;20186;-87
2021/10/08 04:57:45;;;;;;;2.53;1.47;;;4.80;99.90;;;;;;4975418;28;20179;-86
2021/10/08 05:00:14;;;;;;;2.77;1.27;;;5.00;99.90;;;;;;4975753;28;20280;-87
2021/10/08 05:02:40;;;;;;;3.67;1.80;;;4.90;99.90;;;;;;4977084;28;20179;-87
2021/10/08 05:05:06;;;;;;;3.47;2.50;;;4.90;99.90;;;;;;4979302;28;20799;-87
2021/10/08 05:07:31;;;;;;;2.50;2.10;;;4.80;99.90;;;;;;4979227;28;20179;-87
2021/10/08 05:09:57;;;;;;;3.67;2.13;;;4.90;99.90;;;;;;4979103;28;20478;-86
2021/10/08 05:12:25;;;;;;;2.23;1.50;;;4.80;99.90;;;;;;4996306;28;20176;-87
2021/10/08 05:14:55;;;;;;;3.83;1.63;;;4.60;99.90;;;;;;4978931;28;20227;-87
2021/10/08 05:17:21;;;;;;;2.60;1.30;;;4.80;99.90;;;;;;4996312;28;20419;-87
2021/10/08 05:19:47;;;;;;;2.37;2.17;;;4.70;99.90;;;;;;4978954;28;20489;-87
2021/10/08 05:22:13;;;;;;;2.73;1.83;;;4.80;99.90;;;;;;4978988;28;20418;-87
2021/10/08 05:24:39;;;;;;;2.20;2.00;;;4.70;99.90;;;;;;4978894;28;20430;-86
2021/10/08 05:27:05;;;;;;;3.17;2.20;;;4.60;99.90;;;;;;4978566;28;20186;-87
2021/10/08 05:29:31;;;;;;;2.20;1.40;;;4.70;99.90;;;;;;4995971;28;20633;-87
2021/10/08 05:31:56;;;;;;;3.60;2.10;;;4.60;99.90;;;;;;4978411;28;20415;-87
2021/10/08 05:34:22;;;;;;;4.87;1.90;;;4.60;99.90;;;;;;4996011;28;20436;-87
2021/10/08 05:36:51;;;;;;;2.67;1.80;;;4.60;99.90;;;;;;4996186;28;20183;-87
2021/10/08 05:39:17;;;;;;;4.07;2.00;;;4.70;99.90;;;;;;4996262;28;20176;-87
2021/10/08 05:41:43;;;;;;;2.87;1.60;;;4.70;99.90;;;;;;4996081;28;20415;-87
2021/10/08 05:44:09;;;;;;;2.63;1.33;;;4.70;99.90;;;;;;4995803;28;20419;-87
2021/10/08 05:46:38;;;;;;;4.43;1.87;;;4.70;99.90;;;;;;4978544;28;20179;-87
2021/10/08 05:49:04;;;;;;;3.20;1.87;;;4.70;99.90;;;;;;4978452;28;20269;-87
2021/10/08 05:51:30;;;;;;;1.97;1.67;;;4.60;99.90;;;;;;4996032;28;20411;-87
2021/10/08 05:53:59;;;;;;;3.37;1.90;;;4.60;99.90;;;;;;4979257;28;20430;-88
2021/10/08 05:56:24;;;;;;;3.27;1.53;;;5.00;99.90;;;;;;4979085;28;20951;-87
2021/10/08 05:58:50;;;;;;;3.20;2.27;;;4.80;99.90;;;;;;4995873;28;20510;-86
2021/10/08 06:01:15;;;;;;;2.80;1.87;;;4.80;99.90;;;;;;4978135;28;20171;-88
2021/10/08 06:03:41;;;;;;;1.97;1.77;;;4.90;99.90;;;;;;4995536;28;20556;-87
2021/10/08 06:06:06;;;;;;;3.63;2.37;;;4.90;99.90;;;;;;4978257;28;20176;-86
2021/10/08 06:08:32;;;;;;;2.80;2.33;;;4.90;99.90;;;;;;4995369;28;20215;-88
2021/10/08 06:10:59;;;;;;;2.30;1.47;;;4.90;99.90;;;;;;4978051;28;20179;-87
2021/10/08 06:13:25;;;;;;;2.93;2.67;;;4.90;99.90;;;;;;4976981;28;20182;-88
2021/10/08 06:15:51;;;;;;;2.20;1.70;;;5.00;99.90;;;;;;4977563;28;20429;-87
2021/10/08 06:18:17;;;;;;;3.23;1.90;;;4.90;99.90;;;;;;4977800;28;20426;-87
2021/10/08 06:20:43;;;;;;;3.70;2.27;;;5.00;99.90;;;;;;4977645;28;20449;-87
2021/10/08 06:23:08;;;;;;;3.23;2.23;;;5.10;99.90;;;;;;4995268;28;20251;-88
2021/10/08 06:25:34;;;;;;;4.90;2.43;;;5.20;99.90;;;;;;4977849;28;20419;-87
2021/10/08 06:28:00;;;;;;;2.90;2.20;;;5.20;99.90;;;;;;4977145;28;20249;-88
2021/10/08 06:30:25;;;;;;;3.93;2.07;;;5.30;99.90;;;;;;4977447;28;20270;-87
2021/10/08 06:32:52;;;;;;;2.83;1.40;;;5.30;99.90;;;;;;4977465;28;20535;-87
2021/10/08 06:35:18;;;;;;;3.73;2.50;;;5.50;99.90;;;;;;4977720;28;20199;-87
2021/10/08 06:37:44;;;;;;;6.83;3.30;;;5.60;99.90;;;;;;4994893;28;21134;-88
2021/10/08 06:40:10;;;;;;;6.50;3.93;;;5.60;99.90;;;;;;4977698;28;20215;-89
2021/10/08 06:42:35;;;;;;;4.37;2.50;;;5.70;99.90;;;;;;4976630;28;20998;-87
2021/10/08 06:45:02;;;;;;;5.17;3.23;;;5.70;99.90;;;;;;4977279;28;20450;-87
2021/10/08 06:47:46;;;;;;;3.90;2.50;;;6.20;99.90;;;;;;4977252;28;20270;-87
2021/10/08 06:50:12;;;;;;;4.00;3.23;;;5.90;99.90;;;;;;4977380;28;20835;-87
2021/10/08 06:52:37;;;;;;;7.10;4.57;;;6.20;99.90;;;;;;4994477;28;20446;-87
2021/10/08 06:55:03;;;;;;;4.70;4.17;;;6.30;99.90;;;;;;4994364;28;20674;-87
2021/10/08 06:57:32;;;;;;;3.90;3.17;;;6.40;99.90;;;;;;4994262;28;20218;-87
2021/10/08 06:59:57;;;;;;;4.83;3.40;;;6.40;99.90;;;;;;4977101;28;20431;-87
2021/10/08 07:02:23;;;;;;;5.30;3.77;;;6.60;99.90;;;;;;4976971;28;20849;-87
2021/10/08 07:04:49;;;;;;;4.80;3.47;;;6.60;99.90;;;;;;4994368;28;20184;-88
2021/10/08 07:07:14;;;;;;;5.40;4.33;;;6.50;99.90;;;;;;4994269;28;20211;-88
2021/10/08 07:09:40;;;;;;;5.17;4.33;;;6.60;99.90;;;;;;4977022;28;20212;-88
2021/10/08 07:12:05;;;;;;;3.50;2.80;;;6.70;99.90;;;;;;4976798;28;20230;-87
2021/10/08 07:14:31;;;;;;;4.73;3.80;;;7.10;99.90;;;;;;4994233;28;20252;-87
2021/10/08 07:16:57;;;;;;;6.70;4.80;;;7.60;99.90;;;;;;4997184;28;20256;-88
2021/10/08 07:19:23;;;;;;;7.73;6.00;;;8.20;99.90;;;;;;4998968;28;20453;-88
2021/10/08 07:21:49;;;;;;;5.70;4.53;;;9.70;99.90;;;;;;4998836;28;20173;-87
2021/10/08 07:24:14;;;;;;;6.90;5.17;;;12.40;99.90;;;;;;4994500;28;20428;-87
2021/10/08 07:26:40;;;;;;;6.10;4.20;;;13.70;99.90;;;;;;4993981;28;20645;-86
2021/10/08 07:29:06;;;;;;;3.77;3.30;;;13.80;99.90;;;;;;4993741;28;20307;-87
2021/10/08 07:31:31;;;;;;;4.80;3.10;;;13.80;99.90;;;;;;4994142;28;20182;-88
2021/10/08 07:33:57;;;;;;;5.37;4.60;;;12.60;99.90;;;;;;4976601;28;20175;-86
2021/10/08 07:36:23;;;;;;;5.37;3.47;;;12.50;99.90;;;;;;4993986;28;20181;-86
2021/10/08 07:38:49;;;;;;;4.90;3.70;;;12.30;99.90;;;;;;4976388;28;20182;-86
2021/10/08 07:41:15;;;;;;;6.80;4.33;;;12.40;99.90;;;;;;4976566;28;20652;-86
2021/10/08 07:43:41;;;;;;;4.20;3.47;;;14.10;99.90;;;;;;4993604;28;20409;-87
2021/10/08 07:46:10;;;;;;;10.00;4.13;;;14.90;99.90;;;;;;4993888;28;20205;-86
2021/10/08 07:48:37;;;;;;;5.10;3.97;;;15.80;99.90;;;;;;4976385;28;20480;-86
2021/10/08 07:51:03;;;;;;;6.13;4.10;;;16.50;99.90;;;;;;4976208;28;20431;-87
2021/10/08 07:53:29;;;;;;;3.90;3.17;;;17.10;99.90;;;;;;4993881;28;20429;-86
2021/10/08 07:55:55;;;;;;;4.67;4.03;;;15.20;99.90;;;;;;4993528;28;20263;-87
2021/10/08 07:58:26;;;;;;;4.30;3.90;;;13.50;99.90;;;;;;4976133;28;20435;-86
2021/10/08 08:00:53;;;;;;;6.07;3.77;;;13.30;99.90;;;;;;4993989;28;20434;-87
2021/10/08 08:03:19;;;;;;;6.00;3.33;;;15.80;99.90;;;;;;4993884;28;20418;-88
2021/10/08 08:05:45;;;;;;;5.57;4.27;;;17.10;99.90;;;;;;4977870;28;20442;-87
2021/10/08 08:08:10;;;;;;;4.47;4.07;;;17.40;99.90;;;;;;4995504;28;20187;-87
2021/10/08 08:10:36;;;;;;;4.67;4.27;;;18.30;99.90;;;;;;4995493;28;20180;-87
2021/10/08 08:13:02;;;;;;;3.90;3.50;;;18.10;99.90;;;;;;4995249;28;20717;-88
2021/10/08 08:15:27;;;;;;;4.87;3.83;;;16.90;99.90;;;;;;4976231;28;20225;-87
2021/10/08 08:17:53;;;;;;;3.70;3.40;;;16.00;99.90;;;;;;4976067;28;20237;-86
2021/10/08 08:20:18;;;;;;;4.17;3.80;;;14.90;99.90;;;;;;4976152;28;20232;-88
2021/10/08 08:22:44;;;;;;;4.80;3.80;;;16.40;99.90;;;;;;4976139;28;20178;-86
2021/10/08 08:25:09;;;;;;;4.90;4.30;;;18.00;99.90;;;;;;4993454;28;20619;-88
2021/10/08 08:27:35;;;;;;;5.30;4.53;;;18.90;99.90;;;;;;4975675;28;20179;-86
2021/10/08 08:30:03;;;;;;;5.00;4.63;;;19.70;99.20;;;;;;4975798;28;20214;-87
2021/10/08 08:32:31;;;;;;;3.37;3.00;;;20.50;98.40;;;;;;4999690;28;20180;-87
2021/10/08 08:34:57;;;;;;;4.50;3.70;;;21.10;96.40;;;;;;4993346;28;20422;-85
2021/10/08 08:37:22;;;;;;;5.17;4.03;;;21.10;97.40;;;;;;4980600;28;20971;-86
2021/10/08 08:39:50;;;;;;;6.17;4.87;;;21.70;93.50;;;;;;4970301;28;20919;-86
2021/10/08 08:42:18;;;;;;;4.30;3.90;;;21.40;93.30;;;;;;4959795;28;20180;-86
2021/10/08 08:44:43;;;;;;;5.40;4.33;;;22.10;93.90;;;;;;4959900;28;20419;-87
2021/10/08 08:47:16;;;;;;;5.20;4.63;;;22.40;92.50;;;;;;4977302;28;20419;-85
2021/10/08 08:49:45;;;;;;;6.57;4.87;;;22.60;93.60;;;;;;4959981;28;20215;-86
2021/10/08 08:52:11;;;;;;;5.20;4.13;;;22.60;92.10;;;;;;4977186;28;20498;-86
2021/10/08 08:54:39;;;;;;;5.40;4.90;;;22.70;91.30;;;;;;4977215;28;20767;-86
2021/10/08 08:57:13;;;;;;;6.50;4.87;;;22.20;91.80;;;;;;4976713;28;20765;-87
2021/10/08 09:00:17;;;;;;;5.60;4.00;;;22.00;91.70;;;;;;4977152;28;20917;-86
2021/10/08 09:02:44;;;;;;;5.37;3.63;;;22.10;92.70;;;;;;4977173;28;20895;-86
2021/10/08 09:05:37;;;;;;;4.73;4.30;;;22.20;91.80;;;;;;4977003;28;20434;-86
2021/10/08 09:08:08;;;;;;;7.27;4.67;;;22.20;91.90;;;;;;4982295;28;20423;-87
2021/10/08 09:10:36;;;;;;;5.53;4.30;;;21.90;91.90;;;;;;4974672;28;20430;-86
2021/10/08 09:13:03;;;;;;;4.70;4.20;;;22.20;92.50;;;;;;4992039;28;20826;-87
2021/10/08 09:15:43;;;;;;;4.13;3.77;;;22.70;92.70;;;;;;4988940;28;20493;-87
2021/10/08 09:18:11;;;;;;;4.90;4.50;;;23.40;92.10;;;;;;4995376;28;21613;-86
2021/10/08 09:20:38;;;;;;;4.87;4.47;;;23.10;90.80;;;;;;4990157;28;20764;-86
2021/10/08 09:23:05;;;;;;;5.77;5.17;;;23.10;92.50;;;;;;4975383;28;20431;-86
2021/10/08 09:25:34;;;;;;;6.43;3.83;;;23.40;92.80;;;;;;4977270;28;20923;-87
2021/10/08 09:28:08;;;;;;;7.27;3.40;;;23.60;93.90;;;;;;4987007;28;20523;-85
2021/10/08 09:30:45;;;;;;;4.13;3.70;;;24.00;94.30;;;;;;4983231;28;20441;-87
2021/10/08 09:33:14;;;;;;;4.23;3.90;;;24.00;94.20;;;;;;4976472;28;20419;-87
2021/10/08 09:35:40;;;;;;;4.90;4.50;;;24.20;95.00;;;;;;4959065;28;20958;-86
2021/10/08 09:38:10;;;;;;;5.97;4.23;;;;;;;;;;4957138;28;20491;-86
2021/10/08 09:40:39;;;;;;;4.13;3.83;;;;;;;;;;4974945;28;20446;-86
2021/10/08 09:43:07;;;;;;;4.50;3.43;;;24.20;99.90;;;;;;4975839;28;20548;-86
2021/10/08 09:45:50;;;;;;;5.50;4.60;;;24.30;99.90;;;;;;4976528;28;20424;-86
2021/10/08 09:48:16;;;;;;;3.80;3.50;;;24.10;99.90;;;;;;4976225;28;20412;-86
2021/10/08 09:50:58;;;;;;;5.67;3.73;;;24.40;99.90;;;;;;4958786;28;20440;-86
2021/10/08 09:53:24;;;;;;;6.13;4.47;;;24.40;99.90;;;;;;4976440;28;20177;-86
2021/10/08 09:55:52;;;;;;;7.97;3.43;;;24.50;99.90;;;;;;4958949;28;20843;-86
2021/10/08 09:58:20;;;;;;;4.33;3.93;;;24.70;99.90;;;;;;4958453;28;20511;-86
2021/10/08 10:00:57;;;;;;;3.87;3.40;;;24.60;99.90;;;;;;4976261;28;20908;-87
2021/10/08 10:03:23;;;;;;;2.57;2.37;;;24.40;99.90;;;;;;4976310;28;20439;-86
2021/10/08 10:05:49;;;;;;;2.40;2.20;;;24.40;99.90;;;;;;4958840;28;20459;-87
2021/10/08 10:08:16;;;;;;;3.47;2.77;;;24.30;99.90;;;;;;4976231;28;20483;-86
2021/10/08 10:10:42;;;;;;;4.23;1.73;;;24.50;99.90;;;;;;4958742;28;20519;-86
2021/10/08 10:13:10;;;;;;;2.00;1.67;;;24.40;99.90;;;;;;4958202;28;20419;-86
2021/10/08 10:15:40;;;;;;;2.90;1.40;;;23.60;99.90;;;;;;4975745;28;20459;-86
2021/10/08 10:18:11;;;;;;;2.67;1.70;;;23.80;99.90;;;;;;4975883;28;20561;-86
2021/10/08 10:20:39;;;;;;;3.13;2.07;;;23.60;99.90;;;;;;4975881;28;20900;-86
2021/10/08 10:23:06;;;;;;;2.10;0.53;;;;;;;;;;4958399;28;20534;-86
2021/10/08 10:25:33;;;;;;;2.07;0.53;;;;;;;;;;4958528;28;20431;-86
2021/10/08 10:27:59;;;;;;;1.77;0.30;;;;;;;;;;4975412;28;20419;-86
2021/10/08 10:30:25;;;;;;;1.40;0.30;;;;;;;;;;4975687;28;20412;-86
2021/10/08 10:32:51;;;;;;;1.00;0.40;;;;;;;;;;4975759;28;20495;-86
2021/10/08 10:35:36;;;;;;;2.30;0.73;;;;;;;;;;4975697;28;20411;-86
2021/10/08 10:38:20;;;;;;;2.83;0.50;;;;;;;;;;4975611;28;20412;-87
2021/10/08 10:41:08;;;;;;;1.13;0.50;;;22.20;99.90;;;;;;4975587;28;20415;-86
2021/10/08 10:43:49;;;;;;;4.00;0.90;;;21.90;99.90;;;;;;4957745;28;20460;-86
2021/10/08 10:52:04;;;;;;;1.97;0.60;;;23.00;99.90;;;;;;4975429;28;20955;-86
2021/10/08 10:54:43;;;;;;;1.67;0.30;;;23.10;99.90;;;;;;4975292;28;20412;-87
2021/10/08 10:57:10;;;;;;;1.47;0.30;;;23.10;99.90;;;;;;4975003;28;20408;-87
2021/10/08 10:59:49;;;;;;;0.80;0.20;;;23.00;99.30;;;;;;4957556;28;20531;-86
2021/10/08 11:02:24;;;;;;;2.03;0.20;;;22.40;99.70;;;;;;4975102;28;20447;-86
2021/10/08 11:05:07;;;;;;;0.73;0.20;;;22.80;98.90;;;;;;4975135;28;20931;-86
2021/10/08 11:07:33;;;;;;;1.10;0.47;;;22.80;99.90;;;;;;4957692;28;20444;-86
2021/10/08 11:10:04;;;;;;;1.93;0.60;;;22.60;99.90;;;;;;4975006;28;20443;-87
2021/10/08 11:12:40;;;;;;;1.67;0.40;;;22.50;99.90;;;;;;4974624;28;20176;-88
2021/10/08 11:15:18;;;;;;;1.43;0.63;;;23.30;99.10;;;;;;4974777;28;20459;-86
2021/10/08 11:17:52;;;;;;;1.70;0.67;;;23.00;99.90;;;;;;4957561;28;20420;-86
2021/10/08 11:20:32;;;;;;;2.20;0.70;;;22.70;99.90;;;;;;4974939;28;20428;-87
2021/10/08 11:23:19;;;;;;;2.40;0.67;;;22.50;99.90;;;;;;4957423;28;20446;-86
2021/10/08 11:25:56;;;;;;;3.00;1.07;;;23.30;99.50;;;;;;4974811;28;20420;-86
2021/10/08 11:28:30;;;;;;;2.77;1.00;;;22.80;99.90;;;;;;4956881;28;20782;-86
2021/10/08 11:30:56;;;;;;;3.10;0.90;;;23.10;98.90;;;;;;4957230;28;20431;-85
2021/10/08 11:33:36;;;;;;;2.70;1.10;;;22.90;99.90;;;;;;4974550;28;20528;-86
2021/10/08 11:36:28;;;;;;;3.70;1.90;;;23.30;99.90;;;;;;4974394;28;20165;-87
2021/10/08 11:39:16;;;;;;;2.53;1.57;;;23.50;99.90;;;;;;4974388;28;21006;-87
2021/10/08 11:41:53;;;;;;;2.90;2.67;;;22.90;99.90;;;;;;4974041;28;20420;-86
2021/10/08 11:44:28;;;;;;;3.80;3.50;;;23.60;99.90;;;;;;4974475;28;20408;-86
2021/10/08 11:49:47;;;;;;;4.90;4.10;;;23.70;99.90;;;;;;4974436;28;20396;-86
2021/10/08 11:52:13;;;;;;;4.43;4.03;;;23.70;99.90;;;;;;4974380;28;20414;-85
2021/10/08 11:54:39;;;;;;;4.63;4.33;;;;;;;;;;4974219;28;20400;-86
2021/10/08 11:57:09;;;;;;;5.07;4.40;;;22.60;99.90;;;;;;4956494;28;20478;-85
2021/10/08 11:59:37;;;;;;;6.40;4.50;;;22.50;99.90;;;;;;4956702;28;20487;-85
2021/10/08 12:02:14;;;;;;;4.77;4.27;;;22.20;99.90;;;;;;4974270;28;20415;-85
2021/10/08 12:04:55;;;;;;;5.13;4.63;;;22.30;99.90;;;;;;4974128;28;20452;-85
2021/10/08 12:07:20;;;;;;;5.77;5.17;;;22.50;99.90;;;;;;4974143;28;20447;-85
2021/10/08 12:09:46;;;;;;;5.40;4.97;;;21.50;99.90;;;;;;4974034;28;20415;-85
2021/10/08 12:12:14;;;;;;;5.30;4.83;;;22.00;99.90;;;;;;4974351;28;20664;-85
2021/10/08 12:14:45;;;;;;;5.77;5.13;;;20.50;99.90;;;;;;4977961;28;20231;-86
2021/10/08 12:17:18;;;;;;;6.10;5.30;;;23.00;99.90;;;;;;4960622;28;20512;-86
2021/10/08 12:19:44;;;;;;;5.77;5.30;;;;;;;;;;4960710;28;20487;-86
2021/10/08 12:22:23;;;;;;;6.80;6.20;;;22.10;99.90;;;;;;4977955;28;20419;-85
2021/10/08 12:25:04;;;;;;;6.77;5.53;;;20.60;99.90;;;;;;4978082;28;20782;-85
2021/10/08 12:27:30;;;;;;;6.70;6.10;;;19.80;99.90;;;;;;4977482;28;20510;-85
2021/10/08 12:29:55;;;;;;;5.53;5.00;;;22.50;99.90;;;;;;4977919;28;20514;-84
2021/10/08 12:32:21;;;;;;;8.53;6.13;;;23.20;99.90;;;;;;4960322;28;20637;-85
2021/10/08 12:34:49;;;;;;;7.67;7.00;;;24.20;99.90;;;;;;4977750;28;20567;-86
2021/10/08 12:37:23;;;;;;;7.73;7.10;;;22.90;99.90;;;;;;4960412;28;20182;-86
2021/10/08 12:40:11;;;;;;;10.63;9.63;;;21.10;99.90;;;;;;4960301;28;20471;-84
2021/10/08 12:45:33;;;;;;;9.03;8.20;;;18.50;99.90;;;;;;4977815;28;20493;-85
2021/10/08 12:48:00;;;;;;;9.47;8.53;;;18.80;99.90;;;;;;4960190;28;20449;-85
2021/10/08 12:50:27;;;;;;;8.00;7.20;;;19.20;99.90;;;;;;4977297;28;20473;-85
2021/10/08 12:52:56;;;;;;;8.73;7.20;;;19.80;99.90;;;;;;4977479;28;20465;-85
2021/10/08 12:55:31;;;;;;;7.77;6.97;;;20.60;99.90;;;;;;4977486;28;20421;-86
2021/10/08 12:58:02;;;;;;;8.20;7.40;;;20.10;99.90;;;;;;4977123;28;20408;-85
2021/10/08 13:00:40;;;;;;;11.97;8.87;;;20.10;99.90;;;;;;4977669;28;20437;-85
2021/10/08 13:03:07;;;;;;;8.83;7.87;;;19.80;99.90;;;;;;4960631;28;20436;-85
2021/10/08 13:05:48;;;;;;;10.00;8.50;;;19.70;99.90;;;;;;4977735;28;20420;-85
2021/10/08 13:08:18;;;;;;;9.70;8.70;;;19.90;99.90;;;;;;4977361;28;20423;-84
2021/10/08 13:11:00;;;;;;;8.83;8.00;;;19.90;99.90;;;;;;4977166;28;20433;-85
2021/10/08 13:13:31;;;;;;;10.20;9.10;;;19.90;99.90;;;;;;4959580;28;20437;-84